Member area
Imprimable
Couvin, 10/02/2018, BEL - Trail et Marche des 3 Vallées
List of reports > 11km - Result
Search: Page: [1]
126 Entries
 
Complains are not accepted anymore. Results are final.
Category
PosNrNameAgeNATLeagueTeamRealTimeTkmMoy.PlaceNameScrCity
1.1060LEROY WILLIAM32FRAK-RAID ARDENNES53:2053:204:51 12.381sh1LOGNY-BOGNY
2.1087PAQUET OLIVIER42BELJACO55:4655:465:05 11.841ve12COUVIN
3.1091ROGGEN MILO15BELHZ JOGGEN56:1656:165:07 11.731xxx3LEUVEN
4.1073MICHAUX DAMIEN34FRACCSTC1:00:051:00:055:28 10.992sh4LEZ-FONTAINE
5.1045GUILLAUME SÉBASTIEN24BELSHARKS JTRR1:01:131:01:135:34 10.783sh5BAILEUX
6.1212BAUDAUX DAMIEN29BELUS PESCHE1:01:451:01:455:37 10.694sh6
7.1141SCAILLET VINCENT49BELHASTRAIL1:02:171:02:175:40 10.602ve17
8.1142MINET DENIS50BELVIROSPORT1:02:431:02:435:43 10.531ve28
9.1129MONNOYER DAMIEN32BEL1:03:081:03:085:45 10.465sh9
10.1050ILLICETO DAMIEN38FRA1:03:281:03:285:47 10.406sh10CHÂLONS EN CHAMPAGNE
11.1185HANOT JOLAN27BELCLUB DES ECREVISSES1:03:511:03:515:49 10.347sh11
12.1202GREGOIRE JEAN FRANCOIS35BELJTRR1:04:011:04:015:50 10.318sh12
13.1116SEUVIN LUDOVIC33BEL1:04:271:04:275:52 10.249sh13
14.1207GENTY PIERRE30BEL1:04:471:04:475:54 10.1910sh14
15.1138GALICHET STEPHANE34BELRACRAY SPORT NATURE1:04:581:04:585:55 10.1611sh15
16.1186NICOLAS FRANCOIS27BELCLUB DES ECREVISSES1:05:091:05:095:56 10.1312sh16
17.1042GILBOUX MARC30BELTEAM SAN MAZUIN CYCLES BO1:05:471:05:475:59 10.0313sh17MONT
18.1108VANMECHELEN HANS35BEL1:05:591:05:596:00 10.0014sh18SINT-TRUIDEN
19.1080NGUYEN BENOIT30BEL1:06:171:06:176:02 9.9615sh19NEDER-OVER-HEEMBEEK
20.1197BOURGEOIS REMY29BELMED1:06:351:06:356:04 9.9116sh20
21.1012BOTTEAUX FABRICE35BELCOUVIRUN1:06:591:06:596:06 9.8517sh21GONRIEUX
22.1220BLETER MICHAEL33BEL1:07:001:07:006:06 9.8518sh22
23.1118VECCHIATO JULIEN28BELRAID DINGUE !!!1:07:001:07:006:06 9.8519sh23
24.1209GROYNNE EDOUARD31BEL1:07:111:07:116:07 9.8320sh24FAULX LES TOMBES
25.1019CHARLOT NICOLAS36FRAATHLETIC BELAIR CLUB1:07:281:07:286:08 9.7821sh25ELAIRE
26.1077MORREELS GODEFROID46BELSWDE1:07:311:07:316:09 9.783ve126FRASNES
27.1205PELTIER BENJAMIN31BEL1:08:431:08:436:15 9.6122sh27
28.1120LECHAT JEAN31BEL1:09:521:09:526:22 9.4523sh28
29.1193LAMOCK DAMIEN27BEL1:10:221:10:226:24 9.3824sh29
30.643HASTIR RENAUD28BELTRIATHLIÈGE1:10:371:10:376:26 9.3525sh31HAVELANGE
31.1150DROPSY OLIVIER34BEL1:11:011:11:016:28 9.2926sh32
32.1119KESENNE AMBROISE25BELTRAILERS DES FAGNES1:11:071:11:076:28 9.2827sh33
33.1057LECLERC PAUL16FRALES TRAILEURS DE LA POINT1:11:081:11:086:28 9.282xxx34CHOOZ
34.1005AUDENAERT LOUIS22FRA1:11:111:11:116:29 9.2728sh35LILLE
35.1122PRIEUR BENOIT44BELCAP BEAURAING1:11:131:11:136:29 9.274ve136
36.1113HELENUS CLEMENT33BELCOUVIRUN TEAM1:11:201:11:206:30 9.2529sh37
37.1176ROCHETTE ARNAUD34BEL1:11:291:11:296:30 9.2330sh38
38.1063MARCHAL LUC54BELLUC MARCHAL1:11:291:11:296:30 9.232ve239AUBLAIN
39.1064MARCHI NICO27BEL1:11:411:11:416:31 9.2131sh40FOSSES LA VILLE
40.1075MORAUX SAMUEL51BELU.S.PESCHE1:11:501:11:506:32 9.193ve241COUVIN
41.1187BIBBO BENOIT26BEL1:12:341:12:346:36 9.1032sh43
42.1151DUTERME NICOLAS35BELART1:12:441:12:446:37 9.0733sh44
43.1149DUTERME MICHEL59BEL1:13:051:13:056:39 9.034ve245
44.1232DUJARDIN SAMUEL31BELJTRR1:13:501:13:506:43 8.9434sh46
45.1055LAHR PHILIPPE48FRAJTRR1:13:551:13:556:44 8.935ve147CHIMAY
46.1213DEGRELLE VINCENT37BEL1:14:181:14:186:46 8.8835sh48
47.1058LE FRANÇOIS BRUNO37FRAAUCUN1:14:221:14:226:46 8.8836sh49REVIN
48.1201HENRARD ROMANN29BEL1:14:541:14:546:49 8.8137sh51
49.1065MARTIN DENIS58BEL1:15:581:15:586:55 8.695ve254OLLOY-SUR-VIROIN
50.1196DENEFFE NICOLAS10BELMED1:16:111:16:116:56 8.663xxx56
51.1206PLAIDEAU ARNAUD32BEL1:16:131:16:136:56 8.6638sh57
52.1170BOREUX GEOFFREY41BELCHARLETEAM1:16:251:16:256:57 8.646ve158
53.1121CARRARO VINCENT32BEL1:16:431:16:436:59 8.6039sh59
54.1104VANDEVEN ANDRE62FRAANDRE VANDEVEN1:17:161:17:167:02 8.541ve361HAYBES
55.1198MIGNOLET FABIAN35BELMED1:17:201:17:207:02 8.5340sh62
56.1094SEPTIER KRISTOF39FRACA SEDAN1:18:361:18:367:09 8.4041sh63SEDAN
57.1157DEBAIX LAURENT43BEL1:19:281:19:287:14 8.317ve164
58.1026DELCAMPE DENIS50FRALESMONTAGNARDS1:19:381:19:387:15 8.296ve265ANOR
59.1191COULONVAL HERVE51BEL1:20:031:20:037:17 8.257ve266
60.1109VERMEULEN MAXIME27BEL1:20:531:20:537:22 8.1642sh67JUMET (CHARLEROI)
61.1100TAVERNIER CYRIL45FRATRAILEURS DE LA POINTE1:20:571:20:577:22 8.158ve168HAYBES
62.1037FORTEMPS MATHIEU32BELTRAILERS DES FAGNES1:21:141:21:147:24 8.1243sh70REGNIOWEZ
63.1137JOLIVET LUDOVIC34BEL1:21:201:21:207:24 8.1244sh71
64.1178BIOT ALEX56BELJTRR COUVIN1:22:281:22:287:30 8.008ve272
65.1128BARTHER KEVIN29BELRAROY SPORT NATURE1:22:461:22:467:32 7.9845sh74
66.1017CECERE SANDRO34BELBOUFFIOLS/ATCC1:23:141:23:147:34 7.9346sh75FARCIENNES
67.1062MAGEIN LOUIS28BELASTRID MOREAU PICOLE TEAM1:23:341:23:347:36 7.9047sh76LOUVAIN-LA-NEUVE
68.1194DEBUT THOMAS31BEL1:23:451:23:457:37 7.8848sh77
69.1139DELAY XAVIER31BEL1:24:261:24:267:41 7.8249sh80
70.1025DEFAUW BERNARD48BEL1:25:111:25:117:45 7.759ve184FAGNOLLE
71.1024DECERF NICOLAS30BELDAIKIN1:25:151:25:157:45 7.7450sh85PONT DE LOUP
72.1204HODY JEAN-MARC52BELCT3 SPÉLÉO1:25:251:25:257:46 7.739ve287DAUSSOIS
73.1188BOURGUIGNON PIERRE29BELXV DU LOUP1:25:331:25:337:47 7.7251sh88
74.1166COLLARD LAURENT41BEL1:25:371:25:377:47 7.7110ve189
75.1184DORDOLO ANTOINE34BELCLUB DES ECREVISSES1:25:511:25:517:49 7.6952sh91
76.1155BODART FABRICE47BEL1:26:261:26:267:52 7.6411ve196
77.1175MOREAU THIBAUT25BEL1:27:011:27:017:55 7.5953sh98
78.1018CHANTRAINE EMMANUEL41FRAHIRSON1:27:221:27:227:57 7.5612ve199VERVINS
79.1039FRONCOUX TANGUY31BEL1:28:131:28:138:02 7.4854sh102SPY
80.1163CORRAZZA PHILIPPE54BEL1:28:231:28:238:03 7.4710ve2104
81.1097SPELEERS NICOLAS44BEL1:28:431:28:438:04 7.4413ve1106MARIEMBOURG
82.1132MASSART JEAN YVES53BELJC HERMETON1:28:511:28:518:05 7.4311ve2109
83.1071MEYAN JACQUES70BELJTRR1:28:541:28:548:05 7.422ve3110PETIGNY
84.1219LOURS BERNARD48BEL1:30:031:30:038:12 7.3314ve1112
85.1089QUIVY THOMAS25BELQUIVY THOMAS1:30:281:30:288:14 7.3055sh113MONS
86.1123FONTAIN EDDY54BEL1:30:411:30:418:15 7.2812ve2114
87.1162GUTEWIEZ FANNY35BELGRAC RENWEZ1:30:591:30:598:17 7.2556sh115
88.1192HUGO STEPHANE46BEL1:31:241:31:248:19 7.2215ve1118
89.1007BARVAUX QUENTN30BEL1:31:331:31:338:20 7.2157sh120BAILEUX
90.1006BARVAUX CHRISTIAN45BEL1:31:411:31:418:21 7.2016ve1121BAILEUX
91.158LIENARD VINCENT50BEL1:32:061:32:068:23 7.1713ve2123BRUXELLES
92.1145HENRY RENAUD34BELJCCS1:32:541:32:548:27 7.1158sh126
93.1144HENRY STEPHANE58BELJCCS1:32:561:32:568:27 7.1014ve2127
94.1101TAVERNIER PIERRE17FRATRAILEURS DE LA POINTE1:33:211:33:218:30 7.074xxx129HAYBES
95.1181KADER BERNARD34FRA1:33:571:33:578:33 7.0359sh131VIREUX MOLHAIN
96.1159ROUSSELLE JOEL66BELBOUFFIOLS1:34:001:34:008:33 7.023ve3133
97.1217VANDELOISE YOURI34BEL1:34:171:34:178:35 7.0060sh135
98.1200ERNOUX GUILLAUME28BEL1:34:221:34:228:35 6.9961sh136
99.1095SONET DAMIEN39FRAGRAC ATHLETISME1:34:311:34:318:36 6.9862sh139RILLY SUR AISNE
100.1179CHARLIER DAVID34BEL1:34:581:34:588:38 6.9563sh140
101.1190CAMPS MARTIAL47BELRSCA1:35:241:35:248:41 6.9217ve1141
102.1158MAMBOUR ARNAUD37BEL1:35:251:35:258:41 6.9264sh142
103.1148VANDEWYNCKEZ NICOLAS41BEL1:35:481:35:488:43 6.8918ve1143
104.1147PIROZZI STEPHANE42BEL1:35:531:35:538:43 6.8819ve1144
105.1215FRANCOIS PIERRE48BEL1:35:561:35:568:44 6.8820ve1145
106.1003ARY MARMIGON35BELPOWERCROSS 56001:36:311:36:318:47 6.8465sh149SENZEILLES
107.1133GROLAUX JEAN CLAUDE52BELTEAM D'AISEAU1:36:321:36:328:47 6.8415ve2150
108.1131DAUSSY THIERRY63BELHIRSON1:36:331:36:338:47 6.844ve3151
109.322LANTHIER PHILIPPE46BELCCSTC1:37:031:37:038:50 6.8021ve1155
110.1172MARCHAL FRANCOIS29BELBATIFER1:38:251:38:258:57 6.7166sh159
111.1177POUCET HUGO22BEL1:38:421:38:428:59 6.6967sh161
112.1096SOUPART LEOPOLD17BEL1:38:431:38:438:59 6.695xxx162CERFONAINE
113.1069MAYNE LAURENT39BELMPSTUDIO1:41:491:41:499:16 6.4868sh171DINANT
113.1082NICOLAS JORDAN24BEL1:41:491:41:499:16 6.4868sh171PRESGAUX (BELGIQUE)
115.236VANHIESBECQ PIERRE56BELZATAC CHARLEROI1:43:431:43:439:26 6.3616ve2177MONTIGNIES/S/SAMBRE
116.1036FONTAINE POL67BELZATAC CHARLEROI1:43:491:43:499:27 6.365ve3179CHÂTELINEAU
117.1143MINETTE BERNARD67BELZATAC CHARLEROI1:43:491:43:499:27 6.366ve3180
118.1221PESLEUX SEBASTIEN29BEL1:44:201:44:209:30 6.3370sh181
119.1053LABRUYERE CORENTIN29BEL1:46:141:46:149:40 6.2171sh184STAVE
120.1165TONI BORIS30BEL1:47:571:47:579:49 6.1172sh187
121.1168VEKEMANS JORDON22BELESPR PETIGNY1:58:131:58:1310:45 5.5873sh195
122.1067MASEREEL PIERRE28BEL2:44:292:44:2914:58 4.0174sh198VERLAINE
123.1222LOWIES LIONEL35BEL2:45:192:45:1915:02 3.9975sh199
124.373ZANTI DOMENICO39BEL2:50:002:50:0015:28 3.8876sh201
DSQ1125BOTTEGA DIMITRI43BELTEAM D'AISEAU30:3530:35ve1
DSQ371JACQUES GUILLAUME33BEL2:16:542:16:54sh
DNF: did not finish; DSQ: disqualified; Speed in km/h
Page: [1]